Time;durP1;ratioP1;P1;durP2;ratioP2;P2;SDS_P1;SDS_P2;PMS_P1;PMS_P2;Temp;Humidity;BMP_temperature;BMP_pressure;BME280_temperature;BME280_humidity;BME280_pressure;Samples;Min_cycle;Max_cycle;Signal;HPM_P1;HPM_P2
2021/11/07 00:02:17;;;;;;;3.42;2.60;;;;;;;9.49;87.85;100962.78;4948243;28;20062;-80
2021/11/07 00:04:46;;;;;;;7.65;2.67;;;;;;;9.49;87.45;100957.56;4970610;28;20504;-81
2021/11/07 00:07:20;;;;;;;3.53;2.80;;;;;;;9.50;87.39;100946.25;4951444;28;20047;-78
2021/11/07 00:09:58;;;;;;;5.15;2.90;;;;;;;9.50;87.30;100951.47;4967996;28;20038;-80
2021/11/07 00:12:28;;;;;;;5.70;2.50;;;;;;;9.50;87.30;100947.09;4969630;28;20050;-81
2021/11/07 00:14:57;;;;;;;2.67;2.47;;;;;;;9.50;87.26;100944.50;4962800;28;20050;-81
2021/11/07 00:17:27;;;;;;;2.30;2.10;;;;;;;9.53;87.77;100943.63;4962857;28;20497;-78
2021/11/07 00:19:57;;;;;;;3.05;2.15;;;;;;;9.55;87.09;100937.53;4968251;28;20050;-82
2021/11/07 00:22:31;;;;;;;2.42;2.22;;;;;;;9.53;87.61;100927.94;4961290;28;20058;-80
2021/11/07 00:25:03;;;;;;;4.70;2.47;;;;;;;9.50;87.74;100920.97;4980003;28;20054;-78
2021/11/07 00:27:33;;;;;;;3.22;2.38;;;;;;;9.49;87.99;100906.19;4974764;28;20055;-79
2021/11/07 00:30:34;;;;;;;3.05;2.75;;;;;;;9.46;87.90;100911.41;4964256;28;20185;-78
2021/11/07 00:33:14;;;;;;;5.55;2.83;;;;;;;9.43;88.35;100901.81;4965651;28;20051;-86
2021/11/07 00:36:02;;;;;;;5.07;2.38;;;;;;;9.45;88.05;100901.81;4947284;28;20070;-79
2021/11/07 00:38:40;;;;;;;2.58;2.40;;;;;;;9.42;88.41;100893.97;4964376;28;20672;-82
2021/11/07 00:41:25;;;;;;;3.63;2.53;;;;;;;9.42;88.22;100876.53;4962421;28;20063;-81
2021/11/07 00:44:00;;;;;;;3.40;2.42;;;;;;;9.44;88.49;100877.44;4963374;28;20074;-81
2021/11/07 00:46:30;;;;;;;4.03;2.78;;;;;;;9.41;88.40;100876.56;4956763;28;20919;-79
2021/11/07 00:49:00;;;;;;;3.75;3.40;;;;;;;9.41;89.02;100866.09;4961825;28;20042;-81
2021/11/07 00:51:31;;;;;;;7.93;3.20;;;;;;;9.39;89.68;100852.19;4962772;28;20049;-82
2021/11/07 00:54:09;;;;;;;3.08;2.20;;;;;;;9.36;89.91;100844.34;4979130;28;20126;-79
2021/11/07 00:56:38;;;;;;;4.85;3.17;;;;;;;9.30;90.15;100847.84;4978992;28;20047;-85
2021/11/07 00:59:17;;;;;;;5.35;2.67;;;;;;;9.30;90.65;100855.66;4945112;28;20062;-81
2021/11/07 01:01:55;;;;;;;3.80;2.85;;;;;;;9.26;90.38;100838.25;4965872;28;20580;-85
2021/11/07 01:04:22;;;;;;;4.20;2.88;;;;;;;9.25;90.03;100836.50;4963296;28;20408;-79
2021/11/07 01:06:50;;;;;;;3.58;2.88;;;;;;;9.30;89.83;100837.38;4961479;28;20047;-82
2021/11/07 01:09:16;;;;;;;6.50;3.28;;;;;;;9.29;90.57;100824.31;4964138;28;20129;-83
2021/11/07 01:11:43;;;;;;;3.30;2.70;;;;;;;9.28;90.36;100818.22;4961337;28;20562;-81
2021/11/07 01:14:12;;;;;;;6.93;3.13;;;;;;;9.25;90.77;100823.44;4978244;28;20046;-77
2021/11/07 01:16:40;;;;;;;3.65;2.90;;;;;;;9.22;91.07;100816.50;4948370;28;20046;-80
2021/11/07 01:19:07;;;;;;;3.45;2.58;;;;;;;9.19;91.33;100805.16;4975628;28;20137;-79
2021/11/07 01:21:37;;;;;;;3.47;3.22;;;;;;;9.17;91.48;100810.41;4965817;28;20050;-77
2021/11/07 01:24:08;;;;;;;3.58;2.45;;;;;;;9.16;92.27;100807.78;4964394;28;20117;-79
2021/11/07 01:26:37;;;;;;;2.17;1.98;;;;;;;9.16;92.30;100805.19;4964450;28;20080;-77
2021/11/07 01:29:10;;;;;;;4.05;2.53;;;;;;;9.16;91.90;100803.44;4961659;28;20571;-78
2021/11/07 01:31:44;;;;;;;2.30;2.10;;;;;;;9.16;92.03;100781.66;4959386;28;20074;-80
2021/11/07 01:34:17;;;;;;;2.65;2.40;;;;;;;9.15;92.22;100800.81;4966301;28;20052;-79
2021/11/07 01:36:47;;;;;;;2.25;2.05;;;;;;;9.14;92.42;100792.13;4947523;28;20054;-83
2021/11/07 01:39:18;;;;;;;2.53;1.60;;;;;;;9.14;92.17;100779.06;4974865;28;20146;-84
2021/11/07 01:41:59;;;;;;;3.58;2.30;;;;;;;9.15;92.17;100759.03;4989772;28;20042;-77
2021/11/07 01:44:32;;;;;;;1.95;1.75;;;;;;;9.15;92.99;100769.47;4962930;28;20216;-82
2021/11/07 01:46:59;;;;;;;4.43;1.98;;;;;;;9.10;93.29;100762.53;4979913;28;20050;-78
2021/11/07 01:49:33;;;;;;;1.73;1.63;;;;;;;9.09;93.41;100765.16;4950081;28;20413;-81
2021/11/07 01:52:08;;;;;;;2.08;1.92;;;;;;;9.06;93.75;100750.34;4951863;28;20049;-78
2021/11/07 01:54:47;;;;;;;1.98;1.63;;;;;;;9.05;93.52;100750.34;4968226;28;20053;-80
2021/11/07 01:57:17;;;;;;;1.88;1.35;;;;;;;9.05;93.43;100747.75;4960874;28;20054;-79
2021/11/07 01:59:51;;;;;;;1.40;1.30;;;;;;;9.05;93.26;100745.13;4966802;28;20489;-77
2021/11/07 02:02:19;;;;;;;1.83;1.73;;;;;;;9.06;93.57;100739.91;4963259;28;20047;-84
2021/11/07 02:04:47;;;;;;;2.08;1.38;;;;;;;9.05;93.59;100716.41;4962742;28;20050;-81
2021/11/07 02:07:15;;;;;;;1.45;1.30;;;;;;;9.06;93.71;100718.13;4962726;28;20482;-76
2021/11/07 02:09:42;;;;;;;3.13;1.20;;;;;;;9.04;93.50;100728.56;4946400;28;20066;-81
2021/11/07 02:12:11;;;;;;;2.15;1.30;;;;;;;9.06;93.41;100712.91;4962376;28;20046;-78
2021/11/07 02:14:40;;;;;;;1.10;1.10;;;;;;;9.06;93.68;100721.63;4961745;28;20189;-78
2021/11/07 02:17:08;;;;;;;1.73;0.90;;;;;;;9.07;93.92;100722.47;4955286;28;20049;-81
2021/11/07 02:19:35;;;;;;;6.93;1.42;;;;;;;9.06;93.91;100712.91;4977297;28;20533;-79
2021/11/07 02:22:01;;;;;;;1.05;0.90;;;;;;;9.03;94.00;100695.50;4955966;28;20208;-82
2021/11/07 02:24:28;;;;;;;3.17;0.90;;;;;;;9.04;94.31;100680.72;4962088;28;20157;-77
2021/11/07 02:27:02;;;;;;;1.20;1.10;;;;;;;9.02;94.26;100690.28;4976743;28;20034;-79
2021/11/07 02:29:31;;;;;;;0.93;0.93;;;;;;;9.01;95.04;100689.44;4962903;28;20097;-79
2021/11/07 02:31:58;;;;;;;2.63;1.13;;;;;;;8.98;94.72;100673.75;4979068;28;20145;-80
2021/11/07 02:34:28;;;;;;;0.90;0.90;;;;;;;8.97;94.90;100684.19;4960501;28;20154;-79
2021/11/07 02:36:56;;;;;;;0.82;0.82;;;;;;;8.97;94.94;100674.63;4961029;28;20058;-77
2021/11/07 02:39:23;;;;;;;0.75;0.57;;;;;;;9.00;94.40;100672.00;4961659;28;20146;-78
2021/11/07 02:41:50;;;;;;;1.27;0.90;;;;;;;8.99;94.66;100662.44;4963127;28;20041;-81
2021/11/07 02:44:46;;;;;;;0.50;0.50;;;;;;;8.99;94.75;100670.28;4962114;28;20054;-81
2021/11/07 02:47:17;;;;;;;0.65;0.65;;;;;;;9.00;94.95;100660.72;4954496;28;20452;-79
2021/11/07 02:49:45;;;;;;;0.95;0.90;;;;;;;9.00;94.41;100665.94;4963668;28;20133;-80
2021/11/07 02:52:14;;;;;;;0.40;0.40;;;;;;;9.03;94.68;100663.31;4957905;28;20066;-80
2021/11/07 02:54:43;;;;;;;0.75;0.47;;;;;;;9.00;94.38;100664.19;4958854;28;20507;-81
2021/11/07 02:57:17;;;;;;;0.60;0.60;;;;;;;9.03;94.64;100652.84;4954280;28;20481;-78
2021/11/07 02:59:44;;;;;;;0.70;0.70;;;;;;;9.04;94.42;100652.84;4958930;28;20113;-80
2021/11/07 03:02:12;;;;;;;0.77;0.50;;;;;;;9.02;94.51;100667.66;4963414;28;20409;-78
2021/11/07 03:04:40;;;;;;;0.45;0.45;;;;;;;9.01;95.00;100649.38;4962991;28;20069;-77
2021/11/07 03:07:08;;;;;;;1.35;0.60;;;;;;;9.01;94.73;100631.97;4941683;28;20043;-79
2021/11/07 03:09:38;;;;;;;0.47;0.47;;;;;;;9.03;94.56;100639.81;4958009;28;20579;-78
2021/11/07 03:12:12;;;;;;;0.63;0.63;;;;;;;9.04;94.35;100634.56;4975967;28;20042;-78
2021/11/07 03:14:48;;;;;;;0.55;0.55;;;;;;;9.05;94.75;100631.09;4959634;28;20051;-81
2021/11/07 03:17:20;;;;;;;1.40;0.45;;;;;;;9.03;94.76;100618.91;4956324;28;20059;-79
2021/11/07 03:19:47;;;;;;;1.23;0.50;;;;;;;9.04;94.63;100616.28;4966301;28;20082;-79
2021/11/07 03:22:20;;;;;;;4.25;0.60;;;;;;;9.02;94.52;100606.72;4983606;28;20043;-84
2021/11/07 03:24:52;;;;;;;1.30;0.95;;;;;;;9.02;94.94;100605.00;4981171;28;20125;-82
2021/11/07 03:27:36;;;;;;;0.70;0.68;;;;;;;9.04;95.05;100612.81;4983548;28;20049;-81
2021/11/07 03:30:11;;;;;;;1.73;0.80;;;;;;;9.02;94.85;100604.13;4986580;28;20041;-78
2021/11/07 03:32:40;;;;;;;0.70;0.70;;;;;;;9.01;94.88;100626.75;4985061;28;20045;-83
2021/11/07 03:35:15;;;;;;;1.83;0.60;;;;;;;9.02;94.85;100610.22;4968373;28;20047;-82
2021/11/07 03:37:54;;;;;;;0.70;0.70;;;;;;;9.05;94.89;100604.97;4969554;28;20597;-81
2021/11/07 03:40:23;;;;;;;0.73;0.70;;;;;;;9.05;94.99;100607.59;4952391;28;20070;-78
2021/11/07 03:42:49;;;;;;;0.90;0.80;;;;;;;9.04;94.99;100591.94;4968896;28;20070;-78
2021/11/07 03:45:16;;;;;;;0.90;0.90;;;;;;;9.04;95.23;100584.09;4951047;28;20245;-78
2021/11/07 03:47:43;;;;;;;0.75;0.75;;;;;;;9.05;95.40;100604.13;4982286;28;20129;-80
2021/11/07 03:50:09;;;;;;;1.40;0.68;;;;;;;9.05;95.13;100598.91;4981092;28;20055;-78
2021/11/07 03:52:36;;;;;;;1.38;1.27;;;;;;;9.06;95.04;100587.56;4965907;28;20042;-83
2021/11/07 03:55:05;;;;;;;0.80;0.80;;;;;;;9.07;95.28;100586.69;4967096;28;20626;-80
2021/11/07 03:57:31;;;;;;;0.57;0.57;;;;;;;9.07;95.28;100586.69;4964321;28;20039;-83
2021/11/07 03:59:58;;;;;;;0.65;0.65;;;;;;;9.08;95.26;100583.22;4979183;28;20057;-82
2021/11/07 04:02:25;;;;;;;0.63;0.63;;;;;;;9.05;95.73;100567.56;4983479;28;20070;-80
2021/11/07 04:04:52;;;;;;;0.90;0.90;;;;;;;9.04;96.17;100577.13;4962841;28;20042;-81
2021/11/07 04:07:19;;;;;;;0.68;0.65;;;;;;;9.04;96.07;100587.56;4949249;28;20123;-81
2021/11/07 04:09:45;;;;;;;1.10;1.00;;;;;;;9.04;96.04;100564.06;4964018;28;20055;-82
2021/11/07 04:12:12;;;;;;;0.50;0.50;;;;;;;9.03;96.58;100571.91;4978925;28;20038;-81
2021/11/07 04:14:48;;;;;;;;;;;;;;;;;;;;;
2021/11/07 04:17:15;;;;;;;0.82;0.82;;;;;;;8.86;99.13;100579.81;4964184;28;20058;-77
2021/11/07 04:19:42;;;;;;;1.20;1.20;;;;;;;8.76;99.80;100569.41;4964902;28;20137;-79
2021/11/07 04:22:11;;;;;;;1.10;1.10;;;;;;;8.73;100.00;100573.75;4966546;28;20042;-81
2021/11/07 04:24:38;;;;;;;1.05;1.00;;;;;;;8.69;100.00;100570.28;4959010;28;20524;-82
2021/11/07 04:27:05;;;;;;;1.10;1.10;;;;;;;8.68;100.00;100572.91;4942648;28;21112;-79
2021/11/07 04:29:32;;;;;;;1.00;1.00;;;;;;;8.66;100.00;100575.50;4977693;28;20045;-81
2021/11/07 04:31:59;;;;;;;1.52;1.42;;;;;;;8.66;100.00;100577.25;4961000;28;20054;-80
2021/11/07 04:34:27;;;;;;;1.98;1.83;;;;;;;8.58;100.00;100557.25;4966342;28;20047;-79
2021/11/07 04:36:54;;;;;;;1.77;1.67;;;;;;;8.54;100.00;100565.97;4961315;28;20560;-81
2021/11/07 04:39:24;;;;;;;2.35;2.17;;;;;;;8.47;100.00;100564.22;4963682;28;20043;-81
2021/11/07 04:41:50;;;;;;;2.17;2.17;;;;;;;8.43;100.00;100565.09;4983356;28;20393;-78
2021/11/07 04:44:17;;;;;;;2.47;2.30;;;;;;;8.38;100.00;100561.59;4914959;28;1216487;-80
2021/11/07 04:46:44;;;;;;;2.80;2.30;;;;;;;8.38;100.00;100572.03;4980725;28;20058;-84
2021/11/07 04:49:11;;;;;;;2.25;2.03;;;;;;;8.33;100.00;100564.25;4963429;28;20069;-79
2021/11/07 04:51:37;;;;;;;2.53;2.35;;;;;;;8.28;100.00;100555.56;4965345;28;20050;-79
2021/11/07 04:54:04;;;;;;;1.77;1.67;;;;;;;8.28;100.00;100556.41;4965170;28;20047;-80
2021/11/07 04:56:31;;;;;;;2.40;2.20;;;;;;;8.27;100.00;100553.81;4978144;28;20137;-78
2021/11/07 04:58:58;;;;;;;1.63;1.60;;;;;;;8.28;100.00;100563.38;4944932;28;20053;-81
2021/11/07 05:01:27;;;;;;;2.10;2.00;;;;;;;8.29;100.00;100549.44;4961427;28;20052;-80
2021/11/07 05:03:56;;;;;;;1.63;1.52;;;;;;;8.28;100.00;100545.13;4978182;28;20047;-85
2021/11/07 05:06:25;;;;;;;2.63;1.75;;;;;;;8.28;100.00;100547.72;4962388;28;20051;-85
2021/11/07 05:08:54;;;;;;;1.73;1.63;;;;;;;8.30;100.00;100545.97;4969251;28;20045;-78
2021/11/07 05:11:24;;;;;;;1.80;1.80;;;;;;;8.28;100.00;100540.75;4970697;28;20045;-80
2021/11/07 05:13:51;;;;;;;1.75;1.65;;;;;;;8.28;100.00;100526.88;4966606;28;20081;-77
2021/11/07 05:16:17;;;;;;;1.52;1.45;;;;;;;8.28;100.00;100524.25;4965456;28;20058;-80
2021/11/07 05:18:44;;;;;;;1.77;1.67;;;;;;;8.32;100.00;100509.44;4962555;28;20049;-80
2021/11/07 05:21:11;;;;;;;2.00;1.90;;;;;;;8.28;100.00;100519.03;4979157;28;20043;-79
2021/11/07 05:23:38;;;;;;;0.95;0.95;;;;;;;8.27;100.00;100505.13;4965383;28;20070;-79
2021/11/07 05:26:11;;;;;;;1.75;1.63;;;;;;;8.28;100.00;100498.19;4964492;28;20043;-78
2021/11/07 05:28:38;;;;;;;2.33;1.45;;;;;;;8.33;100.00;100499.03;4947706;28;20109;-83
2021/11/07 05:31:04;;;;;;;1.30;1.30;;;;;;;8.36;100.00;100498.16;4961519;28;20570;-79
2021/11/07 05:33:31;;;;;;;1.27;1.27;;;;;;;8.39;100.00;100501.59;4965095;28;20039;-80
2021/11/07 05:36:01;;;;;;;0.98;0.98;;;;;;;8.37;100.00;100500.75;4978133;28;20046;-77
2021/11/07 05:38:30;;;;;;;1.13;1.13;;;;;;;8.35;100.00;100501.63;4946009;28;20047;-78
2021/11/07 05:40:57;;;;;;;0.85;0.85;;;;;;;8.31;100.00;100492.94;4975194;28;20057;-79
2021/11/07 05:43:23;;;;;;;2.25;1.00;;;;;;;8.33;100.00;100472.97;4967200;28;20042;-78
2021/11/07 05:45:51;;;;;;;1.38;1.27;;;;;;;8.39;100.00;100500.75;4962689;28;20432;-78
2021/11/07 05:48:19;;;;;;;2.20;1.60;;;;;;;8.49;100.00;100504.25;4949371;28;20054;-81
2021/11/07 05:50:47;;;;;;;2.00;1.90;;;;;;;8.58;100.00;100502.47;4961597;28;20544;-79
2021/11/07 05:53:14;;;;;;;2.17;1.75;;;;;;;8.66;100.00;100497.22;4977918;28;20847;-81
2021/11/07 05:55:40;;;;;;;2.33;2.10;;;;;;;8.70;100.00;100506.78;4977990;28;20059;-78
2021/11/07 05:58:07;;;;;;;4.22;2.20;;;;;;;8.72;100.00;100496.31;4964503;28;20042;-80
2021/11/07 06:00:35;;;;;;;2.67;2.58;;;;;;;8.74;100.00;100503.28;4962250;28;20046;-81
2021/11/07 06:03:06;;;;;;;2.40;2.05;;;;;;;8.75;100.00;100485.91;4960842;28;20412;-78
2021/11/07 06:05:35;;;;;;;2.55;2.42;;;;;;;8.77;100.00;100490.22;4962751;28;20122;-80
2021/11/07 06:08:02;;;;;;;3.10;2.45;;;;;;;8.77;100.00;100476.28;4960808;28;20051;-81
2021/11/07 06:10:29;;;;;;;2.65;2.42;;;;;;;8.77;100.00;100474.56;4964050;28;20054;-79
2021/11/07 06:12:56;;;;;;;5.57;3.13;;;;;;;8.76;100.00;100479.78;4955942;28;20083;-80
2021/11/07 06:15:22;;;;;;;2.80;2.47;;;;;;;8.80;100.00;100480.63;4961228;28;20045;-80
2021/11/07 06:17:49;;;;;;;5.85;4.10;;;;;;;8.85;100.00;100484.09;4963003;28;20049;-82
2021/11/07 06:20:15;;;;;;;3.70;3.38;;;;;;;8.89;99.27;100491.03;4965775;28;20043;-82
2021/11/07 06:22:42;;;;;;;6.50;2.08;;;;;;;8.90;98.35;100496.28;4968447;28;20412;-78
2021/11/07 06:25:08;;;;;;;3.38;2.08;;;;;;;8.97;96.92;100491.88;4961972;28;20055;-80
2021/11/07 06:27:35;;;;;;;6.95;3.03;;;;;;;8.99;97.06;100500.56;4958660;28;20050;-79
2021/11/07 06:30:05;;;;;;;2.33;1.60;;;;;;;8.97;96.87;100512.78;4952215;28;20051;-84
2021/11/07 06:32:32;;;;;;;3.95;1.88;;;;;;;8.96;96.70;100500.59;4964142;28;20059;-81
2021/11/07 06:34:58;;;;;;;9.13;2.20;;;;;;;8.93;96.95;100501.47;4961939;28;20579;-79
2021/11/07 06:37:25;;;;;;;9.52;3.15;;;;;;;8.92;96.44;100504.09;4962701;28;20106;-81
2021/11/07 06:39:52;;;;;;;8.55;2.45;;;;;;;8.91;96.84;100500.59;4976905;28;20039;-78
2021/11/07 06:42:18;;;;;;;5.22;1.88;;;;;;;8.94;96.15;100502.31;4962840;28;20770;-80
2021/11/07 06:44:45;;;;;;;7.35;1.63;;;;;;;8.97;96.17;100502.31;4964391;28;20061;-80
2021/11/07 06:47:12;;;;;;;3.40;2.08;;;;;;;8.98;96.02;100516.22;4964761;28;20405;-82
2021/11/07 06:49:39;;;;;;;7.95;2.42;;;;;;;8.95;95.84;100511.91;4963617;28;20059;-82
2021/11/07 06:52:06;;;;;;;8.18;2.72;;;;;;;8.93;96.14;100503.22;5001963;28;20070;-78
2021/11/07 06:54:33;;;;;;;4.70;1.80;;;;;;;8.92;95.96;100510.16;4987835;28;20039;-77
2021/11/07 06:57:00;;;;;;;9.35;1.63;;;;;;;8.88;95.89;100502.38;4977790;28;20043;-79
2021/11/07 06:59:27;;;;;;;7.38;1.98;;;;;;;8.92;95.18;100504.94;4961137;28;20047;-80
2021/11/07 07:01:56;;;;;;;4.85;1.88;;;;;;;9.00;94.47;100517.97;4963141;28;20142;-80
2021/11/07 07:04:23;;;;;;;3.35;1.50;;;;;;;9.02;94.02;100500.56;4962200;28;20038;-81
2021/11/07 07:06:49;;;;;;;8.50;2.67;;;;;;;9.01;94.35;100508.38;4982544;28;20054;-78
2021/11/07 07:09:24;;;;;;;6.95;1.60;;;;;;;9.05;93.04;100499.69;4966602;28;20053;-80
2021/11/07 07:11:55;;;;;;;10.05;2.85;;;;;;;9.11;93.29;100517.91;4964111;28;20097;-79
2021/11/07 07:14:25;;;;;;;10.32;1.83;;;;;;;9.12;92.83;100524.88;4963946;28;20127;-82
2021/11/07 07:17:00;;;;;;;5.07;2.55;;;;;;;9.13;93.27;100521.38;4974725;28;20149;-77
2021/11/07 07:19:41;;;;;;;10.70;1.98;;;;;;;9.17;92.88;100530.09;4959260;28;20129;-80
2021/11/07 07:22:23;;;;;;;9.60;2.00;;;;;;;9.16;92.97;100529.19;4959087;28;20080;-77
2021/11/07 07:27:50;;;;;;;4.65;1.40;;;;;;;9.27;93.00;100523.94;4952025;28;20070;-82
2021/11/07 07:33:26;;;;;;;10.63;1.83;;;;;;;9.29;93.31;100526.53;4947226;28;20054;-81
2021/11/07 07:35:56;;;;;;;5.05;1.52;;;;;;;9.32;93.00;100521.28;4976973;28;20230;-85
2021/11/07 07:38:23;;;;;;;3.35;1.77;;;;;;;9.31;93.65;100535.22;4950027;28;20124;-78
2021/11/07 07:40:50;;;;;;;7.20;1.60;;;;;;;9.35;93.76;100518.66;4962931;28;20046;-78
2021/11/07 07:43:17;;;;;;;6.60;2.00;;;;;;;9.37;93.34;100506.44;4963457;28;20386;-80
2021/11/07 07:45:43;;;;;;;6.95;2.50;;;;;;;9.36;93.71;100534.31;4980319;28;20058;-80
2021/11/07 07:48:10;;;;;;;7.88;2.63;;;;;;;9.37;93.69;100525.63;4963914;28;20115;-80
2021/11/07 07:50:39;;;;;;;6.68;1.63;;;;;;;9.39;93.13;100523.84;4962674;28;20074;-82
2021/11/07 07:53:06;;;;;;;6.28;1.90;;;;;;;9.39;93.53;100518.63;4968233;28;20508;-79
2021/11/07 07:55:34;;;;;;;6.22;2.50;;;;;;;9.40;93.50;100522.97;4965625;28;20058;-77
2021/11/07 07:58:01;;;;;;;13.60;2.97;;;;;;;9.38;93.35;100518.63;4963605;28;20177;-81
2021/11/07 08:00:31;;;;;;;4.97;1.92;;;;;;;9.36;93.33;100516.03;4976480;28;20058;-80
2021/11/07 08:02:58;;;;;;;3.53;1.77;;;;;;;9.32;93.24;100524.78;4962925;28;20046;-78
2021/11/07 08:05:24;;;;;;;5.07;1.48;;;;;;;9.24;94.13;100530.03;4968031;28;20039;-80
2021/11/07 08:07:52;;;;;;;6.63;2.22;;;;;;;9.17;94.86;100515.25;4950638;28;20496;-81
2021/11/07 08:10:18;;;;;;;7.13;2.45;;;;;;;9.14;95.08;100523.13;4966626;28;20124;-78
2021/11/07 08:12:45;;;;;;;7.63;2.10;;;;;;;9.20;94.30;100520.47;4969328;28;20096;-80
2021/11/07 08:15:13;;;;;;;7.80;2.40;;;;;;;9.28;94.49;100523.03;4965351;28;20049;-82
2021/11/07 08:17:40;;;;;;;6.10;2.50;;;;;;;9.40;94.32;100522.13;4951406;28;20054;-78
2021/11/07 08:20:09;;;;;;;8.18;3.25;;;;;;;9.47;93.32;100499.44;4950011;28;20046;-78
2021/11/07 08:22:37;;;;;;;14.50;2.30;;;;;;;9.43;93.44;100507.28;4980954;28;20058;-85
2021/11/07 08:25:10;;;;;;;5.70;2.20;;;;;;;9.40;93.58;100488.16;4969398;28;20046;-78
2021/11/07 08:27:44;;;;;;;6.80;2.38;;;;;;;9.38;93.90;100501.22;4964115;28;20050;-80
2021/11/07 08:30:13;;;;;;;;;;;;;;;9.36;93.51;100491.63;4960489;28;20674;-78
2021/11/07 08:32:43;;;;;;;13.60;3.50;;;;;;;9.37;94.03;100502.09;4965926;28;19926;-79
2021/11/07 08:35:10;;;;;;;9.73;2.72;;;;;;;9.34;94.21;100509.94;4968139;28;20057;-83
2021/11/07 08:37:43;;;;;;;7.18;2.92;;;;;;;9.31;94.34;100507.38;4996631;28;20066;-81
2021/11/07 08:40:14;;;;;;;6.47;2.97;;;;;;;9.29;93.73;100500.41;4968012;28;20134;-78
2021/11/07 08:42:44;;;;;;;9.48;2.72;;;;;;;9.25;93.76;100502.16;4966107;28;20186;-76
2021/11/07 09:01:45;;;;;;;;;;;;;;;9.19;92.96;100523.09;4963762;28;20058;-77
2021/11/07 09:04:21;;;;;;;7.43;2.03;;;;;;;9.21;93.35;100526.56;4967642;28;19984;-81
2021/11/07 09:07:17;;;;;;;11.50;2.92;;;;;;;9.23;92.38;100523.06;4967971;28;20092;-79
2021/11/07 09:09:44;;;;;;;10.13;3.17;;;;;;;9.25;92.26;100525.66;4967082;28;20071;-80
2021/11/07 09:12:12;;;;;;;7.28;3.08;;;;;;;9.18;92.69;100535.28;4968459;28;20074;-83
2021/11/07 09:14:41;;;;;;;14.25;3.17;;;;;;;9.12;93.12;100530.09;4962959;28;20046;-83
2021/11/07 09:17:14;;;;;;;9.10;3.08;;;;;;;9.08;93.13;100537.06;4959802;28;20062;-78
2021/11/07 09:19:43;;;;;;;10.45;2.40;;;;;;;9.08;93.18;100541.44;4965006;28;20042;-80
2021/11/07 09:22:15;;;;;;;6.50;2.15;;;;;;;9.16;92.43;100533.56;4961841;28;20063;-81
2021/11/07 09:24:45;;;;;;;9.32;2.95;;;;;;;9.21;92.23;100537.88;4964781;28;20121;-82
2021/11/07 09:27:19;;;;;;;11.75;3.38;;;;;;;9.28;91.36;100536.09;4961203;28;20132;-85
2021/11/07 09:29:50;;;;;;;15.82;3.38;;;;;;;9.37;91.56;100543.03;4968609;28;20043;-82
2021/11/07 09:32:30;;;;;;;17.05;4.20;;;;;;;9.41;90.92;100545.63;4983911;28;20145;-86
2021/11/07 09:35:09;;;;;;;12.68;2.90;;;;;;;9.44;90.59;100542.13;4973652;28;20057;-81
2021/11/07 09:37:44;;;;;;;10.00;3.13;;;;;;;9.50;90.91;100552.50;4952421;28;20184;-83
2021/11/07 09:40:13;;;;;;;13.65;2.35;;;;;;;9.56;89.97;100554.25;4963331;28;20513;-77
2021/11/07 09:43:13;;;;;;;10.82;4.93;;;;;;;9.69;89.21;100550.66;4977471;28;20101;-78
2021/11/07 09:45:49;;;;;;;11.30;4.20;;;;;;;9.87;87.26;100554.03;4961771;28;20054;-77
2021/11/07 09:48:21;;;;;;;11.18;4.10;;;;;;;10.05;86.28;100553.00;4965170;28;20083;-77
2021/11/07 09:50:55;;;;;;;15.52;3.97;;;;;;;10.23;85.42;100570.28;4967859;28;20575;-80
2021/11/07 09:53:23;;;;;;;12.60;3.90;;;;;;;10.36;83.01;100550.13;4964038;28;20779;-81
2021/11/07 09:55:52;;;;;;;10.32;3.95;;;;;;;10.40;82.44;100564.91;4968470;28;20053;-80
2021/11/07 09:58:19;;;;;;;14.45;3.22;;;;;;;10.40;80.92;100550.09;4976534;28;20051;-79
2021/11/07 10:01:01;;;;;;;13.60;3.20;;;;;;;10.45;80.63;100562.28;4949769;28;20446;-81
2021/11/07 10:03:31;;;;;;;12.83;4.83;;;;;;;10.35;80.42;100557.13;4980145;28;20051;-83
2021/11/07 10:05:58;;;;;;;11.55;3.05;;;;;;;10.27;80.81;100559.78;4964371;28;20046;-82
2021/11/07 10:08:26;;;;;;;16.15;3.83;;;;;;;10.26;80.23;100559.81;4965671;28;20392;-80
2021/11/07 10:11:01;;;;;;;19.85;3.83;;;;;;;10.39;80.83;100550.09;4979409;28;20055;-80
2021/11/07 10:13:29;;;;;;;14.32;3.67;;;;;;;10.64;79.58;100555.97;4967839;28;20057;-82
2021/11/07 10:16:09;;;;;;;18.17;3.05;;;;;;;10.75;78.84;100548.88;4964036;28;20944;-81
2021/11/07 10:18:44;;;;;;;18.95;4.50;;;;;;;10.96;78.76;100548.63;4973365;28;20097;-87
2021/11/07 10:21:24;;;;;;;17.73;4.30;;;;;;;11.19;75.54;100546.56;4961109;28;20054;-80
2021/11/07 10:24:03;;;;;;;13.68;3.45;;;;;;;11.07;74.97;100551.97;4977377;28;20512;-78
2021/11/07 10:26:40;;;;;;;12.43;3.05;;;;;;;10.89;75.85;100546.06;4966445;28;20090;-77
2021/11/07 10:29:09;;;;;;;9.48;2.28;;;;;;;10.70;76.30;100555.03;4963565;28;20051;-84
2021/11/07 10:31:42;;;;;;;11.63;2.97;;;;;;;10.59;77.60;100563.00;4949285;28;20047;-80
2021/11/07 10:34:33;;;;;;;13.38;2.92;;;;;;;10.63;76.58;100553.38;4966524;28;20055;-81
2021/11/07 10:37:35;;;;;;;9.88;2.75;;;;;;;10.88;74.57;100544.31;4967045;28;20061;-81
2021/11/07 10:40:31;;;;;;;13.27;2.97;;;;;;;11.06;72.46;100548.47;4965105;28;20054;-80
2021/11/07 10:46:15;;;;;;;11.52;2.95;;;;;;;10.95;73.01;100534.66;4959851;28;20871;-79
2021/11/07 10:54:25;;;;;;;;;;;;;;;10.86;73.31;100537.38;4965199;28;20050;-85
2021/11/07 10:57:15;;;;;;;9.35;2.85;;;;;;;10.90;72.99;100524.25;4960584;28;20020;-84
2021/11/07 11:00:20;;;;;;;7.43;2.92;;;;;;;10.88;72.00;100527.75;4977169;28;20849;-80
2021/11/07 11:02:56;;;;;;;8.38;3.25;;;;;;;10.73;73.30;100534.91;4969151;28;20066;-84
2021/11/07 11:05:38;;;;;;;17.17;3.47;;;;;;;10.76;73.47;100537.47;4978442;28;20058;-79
2021/11/07 11:08:13;;;;;;;10.00;2.90;;;;;;;10.83;73.78;100532.19;4962425;28;20054;-80
2021/11/07 11:10:58;;;;;;;12.90;2.75;;;;;;;10.91;70.99;100532.94;4966402;28;20062;-81
2021/11/07 11:13:40;;;;;;;21.80;4.95;;;;;;;10.99;70.41;100543.34;4977035;28;20043;-83
2021/11/07 11:16:41;;;;;;;17.52;5.53;;;;;;;11.06;69.01;100519.66;4961767;28;20043;-83
2021/11/07 11:19:45;;;;;;;16.25;5.70;;;;;;;11.20;68.98;100521.25;4972323;28;20082;-82
2021/11/07 11:22:32;;;;;;;17.40;5.57;;;;;;;11.18;67.91;100520.38;4980723;28;20481;-77
2021/11/07 11:25:29;;;;;;;15.80;4.03;;;;;;;10.99;68.31;100512.78;4981716;28;20401;-82
2021/11/07 11:28:08;;;;;;;7.93;2.10;;;;;;;10.65;69.24;100513.19;4965142;28;21275;-78
2021/11/07 11:33:29;;;;;;;16.50;3.50;;;;;;;10.47;71.59;100519.50;4949790;28;20137;-80
2021/11/07 11:36:03;;;;;;;11.07;2.55;;;;;;;10.46;70.45;100509.91;4962870;28;20046;-80
2021/11/07 11:38:36;;;;;;;15.43;4.90;;;;;;;10.49;70.49;100522.09;4968698;28;20070;-80
2021/11/07 11:41:08;;;;;;;16.98;3.95;;;;;;;10.50;70.61;100514.22;4966183;28;20118;-79
2021/11/07 11:43:38;;;;;;;10.30;3.05;;;;;;;10.60;71.95;100512.38;4956986;28;20047;-77
2021/11/07 11:46:18;;;;;;;8.88;2.33;;;;;;;10.76;71.01;100508.69;4968413;28;20674;-77
2021/11/07 11:54:50;;;;;;;13.65;4.20;;;;;;;11.56;67.59;100498.88;4956461;28;20170;-79
2021/11/07 11:57:36;;;;;;;8.57;1.75;;;;;;;11.66;65.91;100488.25;4957698;28;20042;-78
2021/11/07 12:00:42;;;;;;;10.07;2.35;;;;;;;11.52;66.73;100497.16;4969511;28;20074;-84
2021/11/07 12:03:18;;;;;;;17.20;4.28;;;;;;;11.38;66.59;100486.91;4998324;28;20121;-82
2021/11/07 12:05:51;;;;;;;13.38;2.33;;;;;;;11.22;66.27;100494.13;4979733;28;20117;-77
2021/11/07 12:08:55;;;;;;;9.50;2.80;;;;;;;11.18;67.05;100489.81;4965589;28;20043;-79
2021/11/07 12:11:30;;;;;;;8.93;2.28;;;;;;;11.21;67.09;100488.91;4971588;28;20038;-80
2021/11/07 12:14:19;;;;;;;11.85;2.60;;;;;;;10.97;67.59;100482.25;4981276;28;20508;-78
2021/11/07 12:16:59;;;;;;;10.30;3.47;;;;;;;10.84;68.61;100481.56;4952876;28;20059;-80
2021/11/07 12:19:45;;;;;;;11.00;2.85;;;;;;;10.88;67.61;100480.63;4946051;28;20110;-81
2021/11/07 12:22:22;;;;;;;10.85;2.50;;;;;;;11.03;66.80;100480.41;4962154;28;20062;-82
2021/11/07 12:24:49;;;;;;;6.72;1.92;;;;;;;11.17;66.78;100477.63;4967486;28;20058;-81
2021/11/07 12:27:31;;;;;;;4.65;1.70;;;;;;;11.28;65.21;100487.94;4966801;28;20469;-79
2021/11/07 12:30:13;;;;;;;10.63;2.58;;;;;;;11.27;64.74;100486.19;4945875;28;20057;-82
2021/11/07 12:32:43;;;;;;;10.75;2.38;;;;;;;11.25;64.17;100482.72;4966873;28;20082;-83